Wheatonville, Indiana
Current Conditions -  °F | °C
As of 9:54 AM on Saturday 25 Oct 2014 (Local Time) from KEVV Reporting Station
Scattered Clouds Scattered Clouds  
Wind Chill: 65°   Ceiling: Unl
Heat Index: 65°   Visibility: 10mi
Dew Point: 57°   Wind: 9mph
Humidity: 75%   Direction: 260°W
Pressure: 30.04"   Gusts: NA
Location:  38.2175°N, 87.3932°W
Report Text: KEVV 251454Z 26008KT 10SM SCT043 18/14 A3004 RMK AO2 SLP169 T01830139 51007
Loading
Personal Weather Stations






























Interactive Weather Map
Tropical Storm Tracking
New forecast layout! Learn more

10-Day Weather Forecast

Advertisements
Track Severe Weather on mobile